sensor_id;sensor_type;location;lat;lon;timestamp;pressure;altitude;pressure_sealevel;temperature;humidity
15678;BME280;7939;50.814;6.368;2022-12-29T00:01:21;98663.25;;;12.73;68.58
15678;BME280;7939;50.814;6.368;2022-12-29T00:03:48;98675.16;;;12.74;68.49
15678;BME280;7939;50.814;6.368;2022-12-29T00:06:14;98660.69;;;12.73;68.21
15678;BME280;7939;50.814;6.368;2022-12-29T00:08:41;98659.75;;;12.75;67.90
15678;BME280;7939;50.814;6.368;2022-12-29T00:11:09;98658.88;;;12.76;68.56
15678;BME280;7939;50.814;6.368;2022-12-29T00:13:38;98658.88;;;12.76;67.56
15678;BME280;7939;50.814;6.368;2022-12-29T00:16:22;98654.59;;;12.77;67.99
15678;BME280;7939;50.814;6.368;2022-12-29T00:18:49;98658.00;;;12.77;68.42
15678;BME280;7939;50.814;6.368;2022-12-29T00:21:18;98652.78;;;12.80;68.29
15678;BME280;7939;50.814;6.368;2022-12-29T00:24:03;98657.06;;;12.80;68.31
15678;BME280;7939;50.814;6.368;2022-12-29T00:26:48;98638.28;;;12.79;68.09
15678;BME280;7939;50.814;6.368;2022-12-29T00:29:31;98634.03;;;12.78;67.33
15678;BME280;7939;50.814;6.368;2022-12-29T00:32:15;98649.47;;;12.77;68.97
15678;BME280;7939;50.814;6.368;2022-12-29T00:34:59;98637.50;;;12.77;68.63
15678;BME280;7939;50.814;6.368;2022-12-29T00:37:35;98640.00;;;12.79;68.04
15678;BME280;7939;50.814;6.368;2022-12-29T00:40:19;98633.09;;;12.81;68.52
15678;BME280;7939;50.814;6.368;2022-12-29T00:42:59;98634.00;;;12.80;68.92
15678;BME280;7939;50.814;6.368;2022-12-29T00:45:45;98622.06;;;12.79;67.56
15678;BME280;7939;50.814;6.368;2022-12-29T00:48:12;98630.53;;;12.81;67.79
15678;BME280;7939;50.814;6.368;2022-12-29T00:50:38;98615.13;;;12.82;68.15
15678;BME280;7939;50.814;6.368;2022-12-29T00:53:04;98611.75;;;12.80;69.31
15678;BME280;7939;50.814;6.368;2022-12-29T00:55:30;98612.56;;;12.82;68.40
15678;BME280;7939;50.814;6.368;2022-12-29T00:57:57;98610.03;;;12.81;67.96
15678;BME280;7939;50.814;6.368;2022-12-29T01:00:24;98628.81;;;12.81;68.87
15678;BME280;7939;50.814;6.368;2022-12-29T01:02:52;98615.22;;;12.79;68.71
15678;BME280;7939;50.814;6.368;2022-12-29T01:05:18;98632.25;;;12.80;68.00
15678;BME280;7939;50.814;6.368;2022-12-29T01:07:45;98627.13;;;12.80;68.01
15678;BME280;7939;50.814;6.368;2022-12-29T01:10:11;98628.84;;;12.80;67.94
15678;BME280;7939;50.814;6.368;2022-12-29T01:12:37;98631.44;;;12.80;68.07
15678;BME280;7939;50.814;6.368;2022-12-29T01:15:08;98630.59;;;12.79;67.88
15678;BME280;7939;50.814;6.368;2022-12-29T01:17:35;98628.03;;;12.79;68.40
15678;BME280;7939;50.814;6.368;2022-12-29T01:20:03;98629.69;;;12.80;67.67
15678;BME280;7939;50.814;6.368;2022-12-29T01:22:30;98615.25;;;12.78;68.25
15678;BME280;7939;50.814;6.368;2022-12-29T01:24:57;98605.91;;;12.75;68.21
15678;BME280;7939;50.814;6.368;2022-12-29T01:27:23;98597.22;;;12.81;67.65
15678;BME280;7939;50.814;6.368;2022-12-29T01:29:50;98597.22;;;12.81;67.94
15678;BME280;7939;50.814;6.368;2022-12-29T01:32:16;98575.03;;;12.80;67.52
15678;BME280;7939;50.814;6.368;2022-12-29T01:34:43;98575.81;;;12.82;67.47
15678;BME280;7939;50.814;6.368;2022-12-29T01:37:11;98588.69;;;12.80;67.31
15678;BME280;7939;50.814;6.368;2022-12-29T01:39:38;98580.16;;;12.80;67.46
15678;BME280;7939;50.814;6.368;2022-12-29T01:42:05;98575.78;;;12.83;67.43
15678;BME280;7939;50.814;6.368;2022-12-29T01:44:49;98577.53;;;12.81;67.10
15678;BME280;7939;50.814;6.368;2022-12-29T01:47:22;98584.38;;;12.81;67.94
15678;BME280;7939;50.814;6.368;2022-12-29T01:49:52;98568.16;;;12.80;67.31
15678;BME280;7939;50.814;6.368;2022-12-29T01:52:22;98581.88;;;12.79;67.53
15678;BME280;7939;50.814;6.368;2022-12-29T01:54:53;98583.56;;;12.80;66.46
15678;BME280;7939;50.814;6.368;2022-12-29T01:57:24;98581.88;;;12.79;66.86
15678;BME280;7939;50.814;6.368;2022-12-29T01:59:54;98586.13;;;12.80;66.76
15678;BME280;7939;50.814;6.368;2022-12-29T02:02:23;98573.28;;;12.80;67.48
15678;BME280;7939;50.814;6.368;2022-12-29T02:04:51;98572.38;;;12.83;67.71
15678;BME280;7939;50.814;6.368;2022-12-29T02:07:20;98574.94;;;12.83;67.73
15678;BME280;7939;50.814;6.368;2022-12-29T02:09:50;98576.69;;;12.82;66.63
15678;BME280;7939;50.814;6.368;2022-12-29T02:12:18;98573.25;;;12.82;66.88
15678;BME280;7939;50.814;6.368;2022-12-29T02:14:47;98568.94;;;12.84;66.17
15678;BME280;7939;50.814;6.368;2022-12-29T02:17:22;98571.50;;;12.84;67.50
15678;BME280;7939;50.814;6.368;2022-12-29T02:20:25;98569.78;;;12.84;67.55
15678;BME280;7939;50.814;6.368;2022-12-29T02:23:11;98566.38;;;12.84;66.48
15678;BME280;7939;50.814;6.368;2022-12-29T02:26:04;98579.97;;;12.86;66.47
15678;BME280;7939;50.814;6.368;2022-12-29T02:28:58;98576.56;;;12.85;67.40
15678;BME280;7939;50.814;6.368;2022-12-29T02:31:39;98573.19;;;12.85;67.50
15678;BME280;7939;50.814;6.368;2022-12-29T02:34:17;98568.03;;;12.85;67.81
15678;BME280;7939;50.814;6.368;2022-12-29T02:36:56;98567.09;;;12.87;66.72
15678;BME280;7939;50.814;6.368;2022-12-29T02:39:35;98551.72;;;12.87;67.10
15678;BME280;7939;50.814;6.368;2022-12-29T02:42:09;98552.53;;;12.89;66.80
15678;BME280;7939;50.814;6.368;2022-12-29T02:44:45;98572.28;;;12.86;66.87
15678;BME280;7939;50.814;6.368;2022-12-29T02:47:22;98577.41;;;12.86;67.35
15678;BME280;7939;50.814;6.368;2022-12-29T02:49:55;98558.53;;;12.88;66.79
15678;BME280;7939;50.814;6.368;2022-12-29T02:52:27;98548.25;;;12.90;66.89
15678;BME280;7939;50.814;6.368;2022-12-29T02:54:58;98531.09;;;12.92;67.67
15678;BME280;7939;50.814;6.368;2022-12-29T02:57:32;98542.22;;;12.91;66.79
15678;BME280;7939;50.814;6.368;2022-12-29T03:00:03;98546.41;;;12.93;67.06
15678;BME280;7939;50.814;6.368;2022-12-29T03:02:46;98531.09;;;12.92;67.23
15678;BME280;7939;50.814;6.368;2022-12-29T03:05:22;98513.13;;;12.92;67.62
15678;BME280;7939;50.814;6.368;2022-12-29T03:08:02;98517.44;;;12.91;66.77
15678;BME280;7939;50.814;6.368;2022-12-29T03:10:37;98523.41;;;12.92;67.05
15678;BME280;7939;50.814;6.368;2022-12-29T03:13:13;98526.75;;;12.94;66.85
15678;BME280;7939;50.814;6.368;2022-12-29T03:16:05;98528.53;;;12.92;66.99
15678;BME280;7939;50.814;6.368;2022-12-29T03:18:42;98514.81;;;12.93;67.37
15678;BME280;7939;50.814;6.368;2022-12-29T03:21:14;98524.19;;;12.94;66.44
15678;BME280;7939;50.814;6.368;2022-12-29T03:23:44;98527.50;;;12.98;66.65
15678;BME280;7939;50.814;6.368;2022-12-29T03:26:15;98514.69;;;12.98;66.92
15678;BME280;7939;50.814;6.368;2022-12-29T03:28:46;98499.28;;;12.98;66.70
15678;BME280;7939;50.814;6.368;2022-12-29T03:31:16;98493.38;;;12.95;67.05
15678;BME280;7939;50.814;6.368;2022-12-29T03:33:46;98477.13;;;12.96;67.32
15678;BME280;7939;50.814;6.368;2022-12-29T03:36:18;98480.56;;;12.95;66.88
15678;BME280;7939;50.814;6.368;2022-12-29T03:38:50;98476.41;;;12.91;67.21
15678;BME280;7939;50.814;6.368;2022-12-29T03:41:25;98476.28;;;12.96;67.41
15678;BME280;7939;50.814;6.368;2022-12-29T03:43:53;98489.22;;;12.91;67.67
15678;BME280;7939;50.814;6.368;2022-12-29T03:46:20;98488.25;;;12.95;66.89
15678;BME280;7939;50.814;6.368;2022-12-29T03:48:48;98489.94;;;12.96;67.07
15678;BME280;7939;50.814;6.368;2022-12-29T03:51:14;98497.63;;;12.96;66.12
15678;BME280;7939;50.814;6.368;2022-12-29T03:53:41;98488.25;;;12.95;65.94
15678;BME280;7939;50.814;6.368;2022-12-29T03:56:07;98488.19;;;12.97;66.93
15678;BME280;7939;50.814;6.368;2022-12-29T03:58:34;98482.31;;;12.93;67.09
15678;BME280;7939;50.814;6.368;2022-12-29T04:01:00;98496.81;;;12.94;67.27
15678;BME280;7939;50.814;6.368;2022-12-29T04:03:27;98489.03;;;12.98;66.60
15678;BME280;7939;50.814;6.368;2022-12-29T04:05:55;98477.06;;;12.98;66.27
15678;BME280;7939;50.814;6.368;2022-12-29T04:08:21;98461.66;;;12.98;66.83
15678;BME280;7939;50.814;6.368;2022-12-29T04:10:48;98471.94;;;12.98;66.71
15678;BME280;7939;50.814;6.368;2022-12-29T04:13:15;98465.13;;;12.97;67.25
15678;BME280;7939;50.814;6.368;2022-12-29T04:15:42;98469.38;;;12.98;66.13
15678;BME280;7939;50.814;6.368;2022-12-29T04:18:10;98476.28;;;12.96;67.28
15678;BME280;7939;50.814;6.368;2022-12-29T04:20:37;98486.53;;;12.96;66.16
15678;BME280;7939;50.814;6.368;2022-12-29T04:23:23;98515.63;;;12.95;66.82
15678;BME280;7939;50.814;6.368;2022-12-29T04:25:49;98496.78;;;12.96;65.99
15678;BME280;7939;50.814;6.368;2022-12-29T04:28:17;98514.69;;;12.98;66.07
15678;BME280;7939;50.814;6.368;2022-12-29T04:30:44;98508.66;;;12.99;66.88
15678;BME280;7939;50.814;6.368;2022-12-29T04:33:11;98489.94;;;12.96;66.51
15678;BME280;7939;50.814;6.368;2022-12-29T04:35:37;98510.50;;;12.95;66.24
15678;BME280;7939;50.814;6.368;2022-12-29T04:38:04;98491.69;;;12.94;66.76
15678;BME280;7939;50.814;6.368;2022-12-29T04:40:32;98505.31;;;12.96;66.13
15678;BME280;7939;50.814;6.368;2022-12-29T04:42:58;98510.44;;;12.96;66.20
15678;BME280;7939;50.814;6.368;2022-12-29T04:45:25;98494.16;;;12.98;66.54
15678;BME280;7939;50.814;6.368;2022-12-29T04:47:52;98486.41;;;12.99;66.47
15678;BME280;7939;50.814;6.368;2022-12-29T04:50:18;98496.72;;;12.98;66.17
15678;BME280;7939;50.814;6.368;2022-12-29T04:52:45;98485.59;;;12.99;66.04
15678;BME280;7939;50.814;6.368;2022-12-29T04:55:11;98477.88;;;12.99;65.32
15678;BME280;7939;50.814;6.368;2022-12-29T04:57:39;98487.41;;;12.95;64.93
15678;BME280;7939;50.814;6.368;2022-12-29T05:00:06;98515.63;;;12.95;65.38
15678;BME280;7939;50.814;6.368;2022-12-29T05:02:34;98520.00;;;12.91;65.67
15678;BME280;7939;50.814;6.368;2022-12-29T05:05:01;98534.50;;;12.92;65.79
15678;BME280;7939;50.814;6.368;2022-12-29T05:07:27;98523.41;;;12.92;65.19
15678;BME280;7939;50.814;6.368;2022-12-29T05:09:54;98521.72;;;12.91;64.97
15678;BME280;7939;50.814;6.368;2022-12-29T05:12:20;98503.66;;;12.95;65.59
15678;BME280;7939;50.814;6.368;2022-12-29T05:14:48;98512.16;;;12.96;65.91
15678;BME280;7939;50.814;6.368;2022-12-29T05:17:15;98513.06;;;12.95;65.31
15678;BME280;7939;50.814;6.368;2022-12-29T05:19:42;98501.09;;;12.94;65.45
15678;BME280;7939;50.814;6.368;2022-12-29T05:22:08;98525.00;;;12.96;65.54
15678;BME280;7939;50.814;6.368;2022-12-29T05:24:35;98513.91;;;12.94;65.34
15678;BME280;7939;50.814;6.368;2022-12-29T05:27:01;98543.78;;;12.96;65.73
15678;BME280;7939;50.814;6.368;2022-12-29T05:29:28;98531.78;;;12.97;64.96
15678;BME280;7939;50.814;6.368;2022-12-29T05:31:55;98543.72;;;12.98;66.15
15678;BME280;7939;50.814;6.368;2022-12-29T05:34:22;98546.34;;;12.96;65.10
15678;BME280;7939;50.814;6.368;2022-12-29T05:36:48;98590.81;;;12.95;65.14
15678;BME280;7939;50.814;6.368;2022-12-29T05:39:15;98572.88;;;12.95;65.56
15678;BME280;7939;50.814;6.368;2022-12-29T05:41:42;98544.66;;;12.95;64.31
15678;BME280;7939;50.814;6.368;2022-12-29T05:44:09;98564.28;;;12.96;65.29
15678;BME280;7939;50.814;6.368;2022-12-29T05:46:36;98570.31;;;12.95;65.05
15678;BME280;7939;50.814;6.368;2022-12-29T05:49:05;98554.03;;;12.96;64.67
15678;BME280;7939;50.814;6.368;2022-12-29T05:51:31;98575.34;;;12.99;65.48
15678;BME280;7939;50.814;6.368;2022-12-29T05:53:58;98560.78;;;12.99;65.76
15678;BME280;7939;50.814;6.368;2022-12-29T05:56:25;98563.47;;;12.96;64.54
15678;BME280;7939;50.814;6.368;2022-12-29T05:58:51;98557.44;;;12.97;64.64
15678;BME280;7939;50.814;6.368;2022-12-29T06:01:18;98554.09;;;12.95;65.01
15678;BME280;7939;50.814;6.368;2022-12-29T06:03:45;98561.00;;;12.91;65.86
15678;BME280;7939;50.814;6.368;2022-12-29T06:06:12;98572.00;;;12.96;65.34
15678;BME280;7939;50.814;6.368;2022-12-29T06:08:39;98575.38;;;12.97;66.18
15678;BME280;7939;50.814;6.368;2022-12-29T06:11:05;98557.44;;;12.97;65.20
15678;BME280;7939;50.814;6.368;2022-12-29T06:13:32;98577.16;;;12.95;66.40
15678;BME280;7939;50.814;6.368;2022-12-29T06:15:59;98583.97;;;12.96;66.04
15678;BME280;7939;50.814;6.368;2022-12-29T06:18:26;98588.25;;;12.95;65.80
15678;BME280;7939;50.814;6.368;2022-12-29T06:20:52;98587.44;;;12.95;65.45
15678;BME280;7939;50.814;6.368;2022-12-29T06:23:21;98572.00;;;12.96;65.31
15678;BME280;7939;50.814;6.368;2022-12-29T06:25:47;98587.38;;;12.96;65.85
15678;BME280;7939;50.814;6.368;2022-12-29T06:28:14;98586.53;;;12.96;66.30
15678;BME280;7939;50.814;6.368;2022-12-29T06:30:43;98598.47;;;12.97;65.39
15678;BME280;7939;50.814;6.368;2022-12-29T06:33:09;98602.00;;;12.93;65.50
15678;BME280;7939;50.814;6.368;2022-12-29T06:35:37;98593.41;;;12.94;66.20
15678;BME280;7939;50.814;6.368;2022-12-29T06:38:03;98593.38;;;12.95;66.28
15678;BME280;7939;50.814;6.368;2022-12-29T06:40:32;98595.91;;;12.97;66.07
15678;BME280;7939;50.814;6.368;2022-12-29T06:42:58;98587.44;;;12.95;66.46
15678;BME280;7939;50.814;6.368;2022-12-29T06:45:25;98605.31;;;12.96;66.14
15678;BME280;7939;50.814;6.368;2022-12-29T06:47:51;98602.75;;;12.96;65.22
15678;BME280;7939;50.814;6.368;2022-12-29T06:50:18;98598.47;;;12.97;65.43
15678;BME280;7939;50.814;6.368;2022-12-29T06:52:44;98601.91;;;12.96;65.37
15678;BME280;7939;50.814;6.368;2022-12-29T06:55:11;98602.81;;;12.95;65.54
15678;BME280;7939;50.814;6.368;2022-12-29T06:57:39;98609.63;;;12.96;65.63
15678;BME280;7939;50.814;6.368;2022-12-29T07:00:09;98619.03;;;12.95;66.01
15678;BME280;7939;50.814;6.368;2022-12-29T07:02:36;98616.50;;;12.94;66.02
15678;BME280;7939;50.814;6.368;2022-12-29T07:05:02;98615.66;;;12.93;66.61
15678;BME280;7939;50.814;6.368;2022-12-29T07:07:29;98625.06;;;12.93;66.17
15678;BME280;7939;50.814;6.368;2022-12-29T07:09:55;98633.59;;;12.95;66.31
15678;BME280;7939;50.814;6.368;2022-12-29T07:12:22;98640.41;;;12.94;66.19
15678;BME280;7939;50.814;6.368;2022-12-29T07:14:50;98640.47;;;12.93;66.00
15678;BME280;7939;50.814;6.368;2022-12-29T07:17:17;98655.84;;;12.93;65.16
15678;BME280;7939;50.814;6.368;2022-12-29T07:19:43;98652.44;;;12.92;65.69
15678;BME280;7939;50.814;6.368;2022-12-29T07:22:10;98656.78;;;12.90;65.56
15678;BME280;7939;50.814;6.368;2022-12-29T07:24:37;98659.34;;;12.90;66.33
15678;BME280;7939;50.814;6.368;2022-12-29T07:27:04;98668.72;;;12.91;66.27
15678;BME280;7939;50.814;6.368;2022-12-29T07:29:31;98673.88;;;12.90;65.76
15678;BME280;7939;50.814;6.368;2022-12-29T07:31:59;98674.69;;;12.92;65.99
15678;BME280;7939;50.814;6.368;2022-12-29T07:34:26;98682.41;;;12.90;66.13
15678;BME280;7939;50.814;6.368;2022-12-29T07:36:52;98667.03;;;12.90;65.78
15678;BME280;7939;50.814;6.368;2022-12-29T07:39:19;98679.84;;;12.90;65.41
15678;BME280;7939;50.814;6.368;2022-12-29T07:41:45;98688.44;;;12.89;65.73
15678;BME280;7939;50.814;6.368;2022-12-29T07:44:12;98685.81;;;12.91;65.64
15678;BME280;7939;50.814;6.368;2022-12-29T07:46:39;98689.22;;;12.91;65.66
15678;BME280;7939;50.814;6.368;2022-12-29T07:49:07;98678.13;;;12.91;65.68
15678;BME280;7939;50.814;6.368;2022-12-29T07:51:33;98689.28;;;12.90;64.91
15678;BME280;7939;50.814;6.368;2022-12-29T07:54:00;98684.16;;;12.90;64.93
15678;BME280;7939;50.814;6.368;2022-12-29T07:56:26;98682.47;;;12.89;64.87
15678;BME280;7939;50.814;6.368;2022-12-29T07:58:53;98675.63;;;12.89;64.54
15678;BME280;7939;50.814;6.368;2022-12-29T08:01:19;98680.69;;;12.91;65.47
15678;BME280;7939;50.814;6.368;2022-12-29T08:03:48;98688.34;;;12.92;65.08
15678;BME280;7939;50.814;6.368;2022-12-29T08:06:16;98678.91;;;12.93;65.07
15678;BME280;7939;50.814;6.368;2022-12-29T08:08:43;98683.25;;;12.91;64.56
15678;BME280;7939;50.814;6.368;2022-12-29T08:11:10;98683.25;;;12.91;65.37
15678;BME280;7939;50.814;6.368;2022-12-29T08:13:36;98693.56;;;12.89;65.04
15678;BME280;7939;50.814;6.368;2022-12-29T08:16:03;98695.25;;;12.90;64.72
15678;BME280;7939;50.814;6.368;2022-12-29T08:18:30;98702.09;;;12.88;65.04
15678;BME280;7939;50.814;6.368;2022-12-29T08:21:01;98696.13;;;12.89;64.67
15678;BME280;7939;50.814;6.368;2022-12-29T08:23:29;98702.97;;;12.89;64.91
15678;BME280;7939;50.814;6.368;2022-12-29T08:25:57;98707.25;;;12.88;64.95
15678;BME280;7939;50.814;6.368;2022-12-29T08:28:24;98706.44;;;12.86;63.55
15678;BME280;7939;50.814;6.368;2022-12-29T08:30:50;98705.72;;;12.83;64.34
15678;BME280;7939;50.814;6.368;2022-12-29T08:33:17;98704.88;;;12.82;64.42
15678;BME280;7939;50.814;6.368;2022-12-29T08:35:44;98721.09;;;12.81;64.35
15678;BME280;7939;50.814;6.368;2022-12-29T08:38:10;98723.66;;;12.81;65.08
15678;BME280;7939;50.814;6.368;2022-12-29T08:40:38;98720.31;;;12.79;64.67
15678;BME280;7939;50.814;6.368;2022-12-29T08:43:06;98714.25;;;12.82;63.73
15678;BME280;7939;50.814;6.368;2022-12-29T08:45:32;98728.78;;;12.81;63.87
15678;BME280;7939;50.814;6.368;2022-12-29T08:47:59;98722.00;;;12.80;64.31
15678;BME280;7939;50.814;6.368;2022-12-29T08:50:26;98726.28;;;12.80;63.13
15678;BME280;7939;50.814;6.368;2022-12-29T08:52:52;98724.50;;;12.82;64.10
15678;BME280;7939;50.814;6.368;2022-12-29T08:55:19;98724.56;;;12.80;63.78
15678;BME280;7939;50.814;6.368;2022-12-29T08:57:47;98724.56;;;12.80;64.17
15678;BME280;7939;50.814;6.368;2022-12-29T09:00:14;98727.06;;;12.83;63.78
15678;BME280;7939;50.814;6.368;2022-12-29T09:02:41;98739.09;;;12.80;63.21
15678;BME280;7939;50.814;6.368;2022-12-29T09:05:08;98744.34;;;12.75;63.28
15678;BME280;7939;50.814;6.368;2022-12-29T09:07:34;98736.63;;;12.77;63.15
15678;BME280;7939;50.814;6.368;2022-12-29T09:10:01;98746.88;;;12.77;63.33
15678;BME280;7939;50.814;6.368;2022-12-29T09:12:28;98762.38;;;12.72;63.06
15678;BME280;7939;50.814;6.368;2022-12-29T09:14:56;98756.31;;;12.75;62.77
15678;BME280;7939;50.814;6.368;2022-12-29T09:17:22;98752.03;;;12.75;63.27
15678;BME280;7939;50.814;6.368;2022-12-29T09:20:09;98767.41;;;12.75;62.99
15678;BME280;7939;50.814;6.368;2022-12-29T09:22:36;98780.22;;;12.77;62.09
15678;BME280;7939;50.814;6.368;2022-12-29T09:25:03;98759.69;;;12.77;62.78
15678;BME280;7939;50.814;6.368;2022-12-29T09:27:30;98777.59;;;12.78;62.39
15678;BME280;7939;50.814;6.368;2022-12-29T09:29:58;98764.78;;;12.78;61.88
15678;BME280;7939;50.814;6.368;2022-12-29T09:32:24;98768.22;;;12.77;61.71
15678;BME280;7939;50.814;6.368;2022-12-29T09:34:51;98775.88;;;12.79;63.18
15678;BME280;7939;50.814;6.368;2022-12-29T09:37:17;98780.16;;;12.78;62.40
15678;BME280;7939;50.814;6.368;2022-12-29T09:39:44;98777.56;;;12.80;62.90
15678;BME280;7939;50.814;6.368;2022-12-29T09:42:14;98770.75;;;12.79;63.36
15678;BME280;7939;50.814;6.368;2022-12-29T09:44:51;98777.50;;;12.81;62.38
15678;BME280;7939;50.814;6.368;2022-12-29T09:47:25;98768.97;;;12.81;61.89
15678;BME280;7939;50.814;6.368;2022-12-29T09:49:54;98767.25;;;12.81;62.13
15678;BME280;7939;50.814;6.368;2022-12-29T09:52:23;98770.63;;;12.83;62.41
15678;BME280;7939;50.814;6.368;2022-12-29T09:54:56;98768.97;;;12.81;62.26
15678;BME280;7939;50.814;6.368;2022-12-29T09:57:26;98777.50;;;12.83;63.57
15678;BME280;7939;50.814;6.368;2022-12-29T09:59:56;98779.16;;;12.84;61.62
15678;BME280;7939;50.814;6.368;2022-12-29T10:02:32;98770.63;;;12.83;62.23
15678;BME280;7939;50.814;6.368;2022-12-29T10:05:00;98783.47;;;12.83;62.75
15678;BME280;7939;50.814;6.368;2022-12-29T10:07:38;98785.97;;;12.85;61.85
15678;BME280;7939;50.814;6.368;2022-12-29T10:10:20;98774.03;;;12.84;61.62
15678;BME280;7939;50.814;6.368;2022-12-29T10:13:01;98786.78;;;12.87;62.22
15678;BME280;7939;50.814;6.368;2022-12-29T10:15:46;98785.19;;;12.83;61.97
15678;BME280;7939;50.814;6.368;2022-12-29T10:18:28;98787.75;;;12.83;60.95
15678;BME280;7939;50.814;6.368;2022-12-29T10:21:04;98792.81;;;12.84;61.15
15678;BME280;7939;50.814;6.368;2022-12-29T10:23:35;98800.56;;;12.83;61.49
15678;BME280;7939;50.814;6.368;2022-12-29T10:26:11;98798.84;;;12.82;61.25
15678;BME280;7939;50.814;6.368;2022-12-29T10:28:42;98791.94;;;12.85;61.71
15678;BME280;7939;50.814;6.368;2022-12-29T10:31:12;98795.41;;;12.84;60.23
15678;BME280;7939;50.814;6.368;2022-12-29T10:33:43;98791.09;;;12.85;61.55
15678;BME280;7939;50.814;6.368;2022-12-29T10:36:16;98786.91;;;12.82;61.01
15678;BME280;7939;50.814;6.368;2022-12-29T10:38:50;98796.22;;;12.85;61.27
15678;BME280;7939;50.814;6.368;2022-12-29T10:41:21;98797.97;;;12.84;61.38
15678;BME280;7939;50.814;6.368;2022-12-29T10:43:52;98795.34;;;12.86;61.02
15678;BME280;7939;50.814;6.368;2022-12-29T10:46:23;98792.78;;;12.86;61.74
15678;BME280;7939;50.814;6.368;2022-12-29T10:48:51;98803.00;;;12.87;61.69
15678;BME280;7939;50.814;6.368;2022-12-29T10:51:21;98804.81;;;12.84;60.35
15678;BME280;7939;50.814;6.368;2022-12-29T10:53:52;98810.69;;;12.87;61.31
15678;BME280;7939;50.814;6.368;2022-12-29T10:56:28;98814.13;;;12.86;60.75
15678;BME280;7939;50.814;6.368;2022-12-29T10:58:57;98805.56;;;12.87;60.02
15678;BME280;7939;50.814;6.368;2022-12-29T11:01:32;98798.75;;;12.86;60.89
15678;BME280;7939;50.814;6.368;2022-12-29T11:04:14;98817.59;;;12.85;61.34
15678;BME280;7939;50.814;6.368;2022-12-29T11:06:48;98803.00;;;12.87;61.00
15678;BME280;7939;50.814;6.368;2022-12-29T11:09:19;98814.19;;;12.85;60.01
15678;BME280;7939;50.814;6.368;2022-12-29T11:11:47;98825.19;;;12.88;61.56
15678;BME280;7939;50.814;6.368;2022-12-29T11:14:18;98819.16;;;12.91;60.67
15678;BME280;7939;50.814;6.368;2022-12-29T11:16:57;98853.34;;;12.91;60.50
15678;BME280;7939;50.814;6.368;2022-12-29T11:19:27;98856.72;;;12.92;60.87
15678;BME280;7939;50.814;6.368;2022-12-29T11:21:54;98860.94;;;12.94;61.24
15678;BME280;7939;50.814;6.368;2022-12-29T11:24:23;98861.91;;;12.90;61.06
15678;BME280;7939;50.814;6.368;2022-12-29T11:26:52;98862.72;;;12.92;61.26
15678;BME280;7939;50.814;6.368;2022-12-29T11:29:27;98859.25;;;12.95;61.51
15678;BME280;7939;50.814;6.368;2022-12-29T11:31:56;98866.06;;;12.96;60.72
15678;BME280;7939;50.814;6.368;2022-12-29T11:34:27;98868.56;;;12.98;61.53
15678;BME280;7939;50.814;6.368;2022-12-29T11:37:00;98874.63;;;12.95;60.74
15678;BME280;7939;50.814;6.368;2022-12-29T11:39:32;98877.09;;;12.98;61.09
15678;BME280;7939;50.814;6.368;2022-12-29T11:41:59;98883.97;;;12.98;60.09
15678;BME280;7939;50.814;6.368;2022-12-29T11:44:32;98883.91;;;12.99;59.93
15678;BME280;7939;50.814;6.368;2022-12-29T11:47:01;98874.53;;;12.98;60.27
15678;BME280;7939;50.814;6.368;2022-12-29T11:49:29;98869.38;;;13.00;60.96
15678;BME280;7939;50.814;6.368;2022-12-29T11:51:56;98889.81;;;13.03;60.46
15678;BME280;7939;50.814;6.368;2022-12-29T11:54:25;98881.38;;;12.98;60.00
15678;BME280;7939;50.814;6.368;2022-12-29T11:56:53;98875.34;;;13.00;60.84
15678;BME280;7939;50.814;6.368;2022-12-29T11:59:37;98880.47;;;13.00;61.02
15678;BME280;7939;50.814;6.368;2022-12-29T12:02:20;98884.75;;;13.01;60.90
15678;BME280;7939;50.814;6.368;2022-12-29T12:04:51;98907.78;;;13.03;60.52
15678;BME280;7939;50.814;6.368;2022-12-29T12:07:24;98893.28;;;13.02;60.35
15678;BME280;7939;50.814;6.368;2022-12-29T12:09:57;98900.97;;;13.02;60.51
15678;BME280;7939;50.814;6.368;2022-12-29T12:12:29;98906.94;;;13.01;61.28
15678;BME280;7939;50.814;6.368;2022-12-29T12:14:58;98896.78;;;12.98;61.09
15678;BME280;7939;50.814;6.368;2022-12-29T12:17:29;98889.88;;;13.01;60.17
15678;BME280;7939;50.814;6.368;2022-12-29T12:20:14;98903.53;;;13.00;61.38
15678;BME280;7939;50.814;6.368;2022-12-29T12:22:46;98903.59;;;12.99;61.74
15678;BME280;7939;50.814;6.368;2022-12-29T12:25:19;98916.38;;;13.00;61.10
15678;BME280;7939;50.814;6.368;2022-12-29T12:27:51;98906.09;;;13.00;59.83
15678;BME280;7939;50.814;6.368;2022-12-29T12:30:21;98906.94;;;13.01;60.79
15678;BME280;7939;50.814;6.368;2022-12-29T12:32:51;98906.09;;;13.00;61.49
15678;BME280;7939;50.814;6.368;2022-12-29T12:35:25;98905.28;;;13.00;60.55
15678;BME280;7939;50.814;6.368;2022-12-29T12:38:10;98913.84;;;12.99;60.90
15678;BME280;7939;50.814;6.368;2022-12-29T12:40:59;98914.69;;;12.99;60.87
15678;BME280;7939;50.814;6.368;2022-12-29T12:43:43;98905.28;;;13.00;60.92
15678;BME280;7939;50.814;6.368;2022-12-29T12:46:41;98922.44;;;12.98;60.81
15678;BME280;7939;50.814;6.368;2022-12-29T12:49:31;98919.81;;;12.99;60.57
15678;BME280;7939;50.814;6.368;2022-12-29T12:52:08;98911.31;;;12.97;61.14
15678;BME280;7939;50.814;6.368;2022-12-29T12:54:58;98929.19;;;13.00;60.21
15678;BME280;7939;50.814;6.368;2022-12-29T12:57:40;98923.22;;;13.00;59.99
15678;BME280;7939;50.814;6.368;2022-12-29T13:00:13;98920.59;;;13.03;60.32
15678;BME280;7939;50.814;6.368;2022-12-29T13:02:54;98923.22;;;13.00;60.39
15678;BME280;7939;50.814;6.368;2022-12-29T13:05:34;98913.75;;;13.03;59.94
15678;BME280;7939;50.814;6.368;2022-12-29T13:08:32;98924.88;;;13.02;60.58
15678;BME280;7939;50.814;6.368;2022-12-29T13:11:10;98930.84;;;13.03;60.56
15678;BME280;7939;50.814;6.368;2022-12-29T13:13:57;98929.19;;;13.00;60.37
15678;BME280;7939;50.814;6.368;2022-12-29T13:16:32;98939.44;;;13.00;60.02
15678;BME280;7939;50.814;6.368;2022-12-29T13:19:08;98936.97;;;12.97;60.98
15678;BME280;7939;50.814;6.368;2022-12-29T13:21:50;98938.59;;;13.00;59.85
15678;BME280;7939;50.814;6.368;2022-12-29T13:24:26;98934.31;;;13.00;60.12
15678;BME280;7939;50.814;6.368;2022-12-29T13:27:01;98941.16;;;13.01;60.81
15678;BME280;7939;50.814;6.368;2022-12-29T13:29:33;98936.84;;;13.03;59.78